sensor_id;sensor_type;location;lat;lon;timestamp;temperature;humidity
674;DHT22;319;48.764;9.174;2023-11-25T00:00:04;4.90;99.90
674;DHT22;319;48.764;9.174;2023-11-25T00:02:32;4.90;99.90
674;DHT22;319;48.764;9.174;2023-11-25T00:04:58;4.90;99.90
674;DHT22;319;48.764;9.174;2023-11-25T00:07:25;4.90;99.90
674;DHT22;319;48.764;9.174;2023-11-25T00:09:52;4.80;99.90
674;DHT22;319;48.764;9.174;2023-11-25T00:12:19;4.80;99.90
674;DHT22;319;48.764;9.174;2023-11-25T00:14:47;4.80;99.90
674;DHT22;319;48.764;9.174;2023-11-25T00:17:14;4.90;99.90
674;DHT22;319;48.764;9.174;2023-11-25T00:19:42;4.80;99.90
674;DHT22;319;48.764;9.174;2023-11-25T00:22:09;4.70;99.90
674;DHT22;319;48.764;9.174;2023-11-25T00:24:36;4.70;99.90
674;DHT22;319;48.764;9.174;2023-11-25T00:27:04;4.60;99.90
674;DHT22;319;48.764;9.174;2023-11-25T00:29:30;4.60;99.90
674;DHT22;319;48.764;9.174;2023-11-25T00:32:01;4.60;99.90
674;DHT22;319;48.764;9.174;2023-11-25T00:34:27;4.60;99.90
674;DHT22;319;48.764;9.174;2023-11-25T00:36:55;4.70;99.90
674;DHT22;319;48.764;9.174;2023-11-25T00:39:21;4.70;99.90
674;DHT22;319;48.764;9.174;2023-11-25T00:41:49;4.70;99.90
674;DHT22;319;48.764;9.174;2023-11-25T00:44:16;4.70;99.90
674;DHT22;319;48.764;9.174;2023-11-25T00:46:42;4.70;99.90
674;DHT22;319;48.764;9.174;2023-11-25T00:49:10;4.80;99.90
674;DHT22;319;48.764;9.174;2023-11-25T00:51:39;4.80;99.90
674;DHT22;319;48.764;9.174;2023-11-25T00:54:06;4.90;99.90
674;DHT22;319;48.764;9.174;2023-11-25T00:56:33;4.90;99.90
674;DHT22;319;48.764;9.174;2023-11-25T00:59:00;4.90;99.90
674;DHT22;319;48.764;9.174;2023-11-25T01:01:27;4.80;99.90
674;DHT22;319;48.764;9.174;2023-11-25T01:03:54;4.90;99.90
674;DHT22;319;48.764;9.174;2023-11-25T01:06:22;4.90;99.90
674;DHT22;319;48.764;9.174;2023-11-25T01:08:49;4.80;99.90
674;DHT22;319;48.764;9.174;2023-11-25T01:11:16;4.80;99.90
674;DHT22;319;48.764;9.174;2023-11-25T01:13:43;4.90;99.90
674;DHT22;319;48.764;9.174;2023-11-25T01:16:15;4.90;99.90
674;DHT22;319;48.764;9.174;2023-11-25T01:18:42;4.80;99.90
674;DHT22;319;48.764;9.174;2023-11-25T01:21:09;4.80;99.90
674;DHT22;319;48.764;9.174;2023-11-25T01:23:37;4.90;99.90
674;DHT22;319;48.764;9.174;2023-11-25T01:26:04;4.90;99.90
674;DHT22;319;48.764;9.174;2023-11-25T01:28:31;4.80;99.90
674;DHT22;319;48.764;9.174;2023-11-25T01:30:58;4.80;99.90
674;DHT22;319;48.764;9.174;2023-11-25T01:33:25;4.80;99.90
674;DHT22;319;48.764;9.174;2023-11-25T01:35:52;4.80;99.90
674;DHT22;319;48.764;9.174;2023-11-25T01:38:19;4.70;99.90
674;DHT22;319;48.764;9.174;2023-11-25T01:40:48;4.70;99.90
674;DHT22;319;48.764;9.174;2023-11-25T01:43:19;4.70;99.90
674;DHT22;319;48.764;9.174;2023-11-25T01:45:49;4.70;99.90
674;DHT22;319;48.764;9.174;2023-11-25T01:48:17;4.70;99.90
674;DHT22;319;48.764;9.174;2023-11-25T01:50:44;4.80;99.90
674;DHT22;319;48.764;9.174;2023-11-25T01:53:14;4.70;99.90
674;DHT22;319;48.764;9.174;2023-11-25T01:55:41;4.70;99.90
674;DHT22;319;48.764;9.174;2023-11-25T01:58:09;4.70;99.90
674;DHT22;319;48.764;9.174;2023-11-25T02:00:36;4.70;99.90
674;DHT22;319;48.764;9.174;2023-11-25T02:03:05;4.70;99.90
674;DHT22;319;48.764;9.174;2023-11-25T02:05:32;4.70;99.90
674;DHT22;319;48.764;9.174;2023-11-25T02:07:58;4.70;99.90
674;DHT22;319;48.764;9.174;2023-11-25T02:10:26;4.80;99.90
674;DHT22;319;48.764;9.174;2023-11-25T02:12:52;4.80;99.90
674;DHT22;319;48.764;9.174;2023-11-25T02:15:20;4.90;99.90
674;DHT22;319;48.764;9.174;2023-11-25T02:17:47;4.80;99.90
674;DHT22;319;48.764;9.174;2023-11-25T02:20:14;4.80;99.90
674;DHT22;319;48.764;9.174;2023-11-25T02:22:50;4.70;99.90
674;DHT22;319;48.764;9.174;2023-11-25T02:25:17;4.70;99.90
674;DHT22;319;48.764;9.174;2023-11-25T02:27:47;4.70;99.90
674;DHT22;319;48.764;9.174;2023-11-25T02:30:15;4.70;99.90
674;DHT22;319;48.764;9.174;2023-11-25T02:32:42;4.70;99.90
674;DHT22;319;48.764;9.174;2023-11-25T02:35:09;4.60;99.90
674;DHT22;319;48.764;9.174;2023-11-25T02:37:37;4.60;99.90
674;DHT22;319;48.764;9.174;2023-11-25T02:40:07;4.50;99.90
674;DHT22;319;48.764;9.174;2023-11-25T02:42:38;4.40;99.90
674;DHT22;319;48.764;9.174;2023-11-25T02:45:05;4.40;99.90
674;DHT22;319;48.764;9.174;2023-11-25T02:47:33;4.40;99.90
674;DHT22;319;48.764;9.174;2023-11-25T02:49:59;4.40;99.90
674;DHT22;319;48.764;9.174;2023-11-25T02:52:26;4.30;99.90
674;DHT22;319;48.764;9.174;2023-11-25T02:54:53;4.30;99.90
674;DHT22;319;48.764;9.174;2023-11-25T02:57:21;4.30;99.90
674;DHT22;319;48.764;9.174;2023-11-25T02:59:48;4.40;99.90
674;DHT22;319;48.764;9.174;2023-11-25T03:02:15;4.40;99.90
674;DHT22;319;48.764;9.174;2023-11-25T03:04:43;4.40;99.90
674;DHT22;319;48.764;9.174;2023-11-25T03:07:12;4.40;99.90
674;DHT22;319;48.764;9.174;2023-11-25T03:09:39;4.40;99.90
674;DHT22;319;48.764;9.174;2023-11-25T03:12:08;4.40;99.90
674;DHT22;319;48.764;9.174;2023-11-25T03:14:36;4.40;99.90
674;DHT22;319;48.764;9.174;2023-11-25T03:17:03;4.30;99.90
674;DHT22;319;48.764;9.174;2023-11-25T03:19:30;4.40;99.90
674;DHT22;319;48.764;9.174;2023-11-25T03:21:57;4.50;99.90
674;DHT22;319;48.764;9.174;2023-11-25T03:24:24;4.60;99.90
674;DHT22;319;48.764;9.174;2023-11-25T03:26:51;4.60;99.90
674;DHT22;319;48.764;9.174;2023-11-25T03:29:18;4.50;99.90
674;DHT22;319;48.764;9.174;2023-11-25T03:31:47;4.50;99.90
674;DHT22;319;48.764;9.174;2023-11-25T03:34:13;4.60;99.90
674;DHT22;319;48.764;9.174;2023-11-25T03:36:40;4.60;99.90
674;DHT22;319;48.764;9.174;2023-11-25T03:39:07;4.60;99.90
674;DHT22;319;48.764;9.174;2023-11-25T03:41:35;4.70;99.90
674;DHT22;319;48.764;9.174;2023-11-25T03:44:02;4.70;99.90
674;DHT22;319;48.764;9.174;2023-11-25T03:46:28;4.80;99.90
674;DHT22;319;48.764;9.174;2023-11-25T03:48:56;4.90;99.90
674;DHT22;319;48.764;9.174;2023-11-25T03:51:23;4.70;99.90
674;DHT22;319;48.764;9.174;2023-11-25T03:53:50;4.70;99.90
674;DHT22;319;48.764;9.174;2023-11-25T03:56:17;4.60;99.90
674;DHT22;319;48.764;9.174;2023-11-25T03:58:43;4.70;99.90
674;DHT22;319;48.764;9.174;2023-11-25T04:01:10;4.70;99.90
674;DHT22;319;48.764;9.174;2023-11-25T04:03:37;4.70;99.90
674;DHT22;319;48.764;9.174;2023-11-25T04:06:06;4.70;99.90
674;DHT22;319;48.764;9.174;2023-11-25T04:08:33;4.70;99.90
674;DHT22;319;48.764;9.174;2023-11-25T04:11:01;4.80;99.90
674;DHT22;319;48.764;9.174;2023-11-25T04:13:29;4.80;99.90
674;DHT22;319;48.764;9.174;2023-11-25T04:15:56;4.80;99.90
674;DHT22;319;48.764;9.174;2023-11-25T04:18:24;4.70;99.90
674;DHT22;319;48.764;9.174;2023-11-25T04:20:51;4.70;99.90
674;DHT22;319;48.764;9.174;2023-11-25T04:23:19;4.80;99.90
674;DHT22;319;48.764;9.174;2023-11-25T04:25:46;4.80;99.90
674;DHT22;319;48.764;9.174;2023-11-25T04:28:14;4.90;99.90
674;DHT22;319;48.764;9.174;2023-11-25T04:30:41;5.00;99.90
674;DHT22;319;48.764;9.174;2023-11-25T04:33:08;5.00;99.90
674;DHT22;319;48.764;9.174;2023-11-25T04:35:35;5.00;99.90
674;DHT22;319;48.764;9.174;2023-11-25T04:38:03;5.10;99.90
674;DHT22;319;48.764;9.174;2023-11-25T04:40:31;5.00;99.90
674;DHT22;319;48.764;9.174;2023-11-25T04:42:58;5.00;99.90
674;DHT22;319;48.764;9.174;2023-11-25T04:45:25;5.10;99.90
674;DHT22;319;48.764;9.174;2023-11-25T04:47:52;5.10;99.90
674;DHT22;319;48.764;9.174;2023-11-25T04:50:19;5.00;99.90
674;DHT22;319;48.764;9.174;2023-11-25T04:52:46;4.90;99.90
674;DHT22;319;48.764;9.174;2023-11-25T04:55:13;4.80;99.90
674;DHT22;319;48.764;9.174;2023-11-25T04:57:41;4.80;99.90
674;DHT22;319;48.764;9.174;2023-11-25T05:00:10;4.80;99.90
674;DHT22;319;48.764;9.174;2023-11-25T05:02:39;4.70;99.90
674;DHT22;319;48.764;9.174;2023-11-25T05:05:08;4.80;99.90
674;DHT22;319;48.764;9.174;2023-11-25T05:07:36;4.60;99.90
674;DHT22;319;48.764;9.174;2023-11-25T05:10:03;4.50;99.90
674;DHT22;319;48.764;9.174;2023-11-25T05:12:31;4.50;99.90
674;DHT22;319;48.764;9.174;2023-11-25T05:14:59;4.40;99.90
674;DHT22;319;48.764;9.174;2023-11-25T05:17:26;4.40;99.90
674;DHT22;319;48.764;9.174;2023-11-25T05:19:54;4.30;99.90
674;DHT22;319;48.764;9.174;2023-11-25T05:22:21;4.30;99.90
674;DHT22;319;48.764;9.174;2023-11-25T05:24:48;4.30;99.90
674;DHT22;319;48.764;9.174;2023-11-25T05:27:15;4.30;99.90
674;DHT22;319;48.764;9.174;2023-11-25T05:29:42;4.30;99.90
674;DHT22;319;48.764;9.174;2023-11-25T05:32:10;4.20;99.90
674;DHT22;319;48.764;9.174;2023-11-25T05:34:38;4.20;99.90
674;DHT22;319;48.764;9.174;2023-11-25T05:37:06;4.20;99.90
674;DHT22;319;48.764;9.174;2023-11-25T05:39:33;4.20;99.90
674;DHT22;319;48.764;9.174;2023-11-25T05:42:01;4.20;99.90
674;DHT22;319;48.764;9.174;2023-11-25T05:44:28;4.10;99.90
674;DHT22;319;48.764;9.174;2023-11-25T05:46:57;4.20;99.90
674;DHT22;319;48.764;9.174;2023-11-25T05:49:25;4.10;99.90
674;DHT22;319;48.764;9.174;2023-11-25T05:51:52;4.10;99.90
674;DHT22;319;48.764;9.174;2023-11-25T05:54:18;4.10;99.90
674;DHT22;319;48.764;9.174;2023-11-25T05:56:46;4.10;99.90
674;DHT22;319;48.764;9.174;2023-11-25T05:59:14;4.10;99.90
674;DHT22;319;48.764;9.174;2023-11-25T06:01:42;4.20;99.90
674;DHT22;319;48.764;9.174;2023-11-25T06:04:08;4.20;99.90
674;DHT22;319;48.764;9.174;2023-11-25T06:06:37;4.20;99.90
674;DHT22;319;48.764;9.174;2023-11-25T06:09:05;4.20;99.90
674;DHT22;319;48.764;9.174;2023-11-25T06:11:32;4.30;99.90
674;DHT22;319;48.764;9.174;2023-11-25T06:13:59;4.20;99.90
674;DHT22;319;48.764;9.174;2023-11-25T06:16:26;4.20;99.90
674;DHT22;319;48.764;9.174;2023-11-25T06:18:54;4.30;99.90
674;DHT22;319;48.764;9.174;2023-11-25T06:21:21;4.30;99.90
674;DHT22;319;48.764;9.174;2023-11-25T06:23:50;4.40;99.90
674;DHT22;319;48.764;9.174;2023-11-25T06:26:17;4.40;99.90
674;DHT22;319;48.764;9.174;2023-11-25T06:28:46;4.50;99.90
674;DHT22;319;48.764;9.174;2023-11-25T06:31:14;4.50;99.90
674;DHT22;319;48.764;9.174;2023-11-25T06:33:42;4.50;99.90
674;DHT22;319;48.764;9.174;2023-11-25T06:36:11;4.60;99.90
674;DHT22;319;48.764;9.174;2023-11-25T06:38:38;4.60;99.90
674;DHT22;319;48.764;9.174;2023-11-25T06:41:06;4.60;99.90
674;DHT22;319;48.764;9.174;2023-11-25T06:43:33;4.60;99.90
674;DHT22;319;48.764;9.174;2023-11-25T06:46:03;4.70;99.90
674;DHT22;319;48.764;9.174;2023-11-25T06:48:30;4.60;99.90
674;DHT22;319;48.764;9.174;2023-11-25T06:50:57;4.60;99.90
674;DHT22;319;48.764;9.174;2023-11-25T06:53:24;4.60;99.90
674;DHT22;319;48.764;9.174;2023-11-25T06:55:51;4.70;99.90
674;DHT22;319;48.764;9.174;2023-11-25T06:58:19;4.70;99.90
674;DHT22;319;48.764;9.174;2023-11-25T07:00:47;4.70;99.90
674;DHT22;319;48.764;9.174;2023-11-25T07:03:14;4.80;99.90
674;DHT22;319;48.764;9.174;2023-11-25T07:05:42;4.70;99.90
674;DHT22;319;48.764;9.174;2023-11-25T07:08:09;4.80;99.90
674;DHT22;319;48.764;9.174;2023-11-25T07:10:36;4.90;99.90
674;DHT22;319;48.764;9.174;2023-11-25T07:13:04;4.90;99.90
674;DHT22;319;48.764;9.174;2023-11-25T07:15:33;4.90;99.90
674;DHT22;319;48.764;9.174;2023-11-25T07:18:01;5.00;99.90
674;DHT22;319;48.764;9.174;2023-11-25T07:20:28;4.90;99.90
674;DHT22;319;48.764;9.174;2023-11-25T07:22:57;5.00;99.90
674;DHT22;319;48.764;9.174;2023-11-25T07:25:25;4.90;99.90
674;DHT22;319;48.764;9.174;2023-11-25T07:27:53;5.00;99.90
674;DHT22;319;48.764;9.174;2023-11-25T07:30:20;5.00;99.90
674;DHT22;319;48.764;9.174;2023-11-25T07:32:48;5.00;99.90
674;DHT22;319;48.764;9.174;2023-11-25T07:35:15;5.10;99.90
674;DHT22;319;48.764;9.174;2023-11-25T07:37:42;5.30;99.90
674;DHT22;319;48.764;9.174;2023-11-25T07:40:09;5.30;99.90
674;DHT22;319;48.764;9.174;2023-11-25T07:42:39;5.30;99.90
674;DHT22;319;48.764;9.174;2023-11-25T07:45:08;5.30;99.90
674;DHT22;319;48.764;9.174;2023-11-25T07:47:35;5.40;99.90
674;DHT22;319;48.764;9.174;2023-11-25T07:50:04;5.30;99.90
674;DHT22;319;48.764;9.174;2023-11-25T07:52:32;5.40;99.90
674;DHT22;319;48.764;9.174;2023-11-25T07:54:58;5.40;99.90
674;DHT22;319;48.764;9.174;2023-11-25T07:57:25;5.40;99.90
674;DHT22;319;48.764;9.174;2023-11-25T07:59:53;5.50;99.90
674;DHT22;319;48.764;9.174;2023-11-25T08:02:19;5.50;99.90
674;DHT22;319;48.764;9.174;2023-11-25T08:04:46;5.50;99.90
674;DHT22;319;48.764;9.174;2023-11-25T08:07:14;5.50;99.90
674;DHT22;319;48.764;9.174;2023-11-25T08:09:41;5.60;99.90
674;DHT22;319;48.764;9.174;2023-11-25T08:12:08;5.60;99.90
674;DHT22;319;48.764;9.174;2023-11-25T08:14:35;5.60;99.90
674;DHT22;319;48.764;9.174;2023-11-25T08:17:02;5.70;99.90
674;DHT22;319;48.764;9.174;2023-11-25T08:19:30;5.80;99.90
674;DHT22;319;48.764;9.174;2023-11-25T08:21:57;5.80;99.90
674;DHT22;319;48.764;9.174;2023-11-25T08:24:25;5.80;99.90
674;DHT22;319;48.764;9.174;2023-11-25T08:26:52;5.80;99.90
674;DHT22;319;48.764;9.174;2023-11-25T08:29:19;5.90;99.90
674;DHT22;319;48.764;9.174;2023-11-25T08:31:46;5.80;99.90
674;DHT22;319;48.764;9.174;2023-11-25T08:34:12;5.80;99.90
674;DHT22;319;48.764;9.174;2023-11-25T08:36:40;5.80;99.90
674;DHT22;319;48.764;9.174;2023-11-25T08:39:18;5.90;99.90
674;DHT22;319;48.764;9.174;2023-11-25T08:41:51;6.10;99.90
674;DHT22;319;48.764;9.174;2023-11-25T08:44:18;6.10;99.90
674;DHT22;319;48.764;9.174;2023-11-25T08:46:45;6.20;99.90
674;DHT22;319;48.764;9.174;2023-11-25T08:49:13;6.10;99.70
674;DHT22;319;48.764;9.174;2023-11-25T08:51:40;6.00;99.50
674;DHT22;319;48.764;9.174;2023-11-25T08:54:11;6.10;99.70
674;DHT22;319;48.764;9.174;2023-11-25T08:56:40;6.10;99.50
674;DHT22;319;48.764;9.174;2023-11-25T08:59:08;6.20;99.60
674;DHT22;319;48.764;9.174;2023-11-25T09:01:37;6.20;99.70
674;DHT22;319;48.764;9.174;2023-11-25T09:04:05;6.10;99.70
674;DHT22;319;48.764;9.174;2023-11-25T09:06:33;6.20;99.90
674;DHT22;319;48.764;9.174;2023-11-25T09:09:02;6.20;99.90
674;DHT22;319;48.764;9.174;2023-11-25T09:11:30;6.10;99.90
674;DHT22;319;48.764;9.174;2023-11-25T09:13:58;6.00;99.90
674;DHT22;319;48.764;9.174;2023-11-25T09:16:27;6.00;99.90
674;DHT22;319;48.764;9.174;2023-11-25T09:18:54;5.90;99.90
674;DHT22;319;48.764;9.174;2023-11-25T09:21:21;6.00;99.90
674;DHT22;319;48.764;9.174;2023-11-25T09:23:48;6.00;99.90
674;DHT22;319;48.764;9.174;2023-11-25T09:26:16;6.10;99.90
674;DHT22;319;48.764;9.174;2023-11-25T09:28:42;6.20;99.90
674;DHT22;319;48.764;9.174;2023-11-25T09:31:09;6.30;99.90
674;DHT22;319;48.764;9.174;2023-11-25T09:33:38;6.40;99.90
674;DHT22;319;48.764;9.174;2023-11-25T09:36:05;6.30;99.90
674;DHT22;319;48.764;9.174;2023-11-25T09:38:32;6.20;99.90
674;DHT22;319;48.764;9.174;2023-11-25T09:40:59;6.10;99.90
674;DHT22;319;48.764;9.174;2023-11-25T09:43:26;6.20;99.90
674;DHT22;319;48.764;9.174;2023-11-25T09:45:55;6.30;99.90
674;DHT22;319;48.764;9.174;2023-11-25T09:48:24;6.30;99.90
674;DHT22;319;48.764;9.174;2023-11-25T09:50:53;6.40;99.90
674;DHT22;319;48.764;9.174;2023-11-25T09:53:23;6.30;99.90
674;DHT22;319;48.764;9.174;2023-11-25T09:55:58;6.40;99.90
674;DHT22;319;48.764;9.174;2023-11-25T09:58:27;6.60;99.90
674;DHT22;319;48.764;9.174;2023-11-25T10:00:55;6.60;99.90
674;DHT22;319;48.764;9.174;2023-11-25T10:03:22;6.80;99.90
674;DHT22;319;48.764;9.174;2023-11-25T10:05:49;6.90;99.80
674;DHT22;319;48.764;9.174;2023-11-25T10:08:18;6.90;99.10
674;DHT22;319;48.764;9.174;2023-11-25T10:10:58;6.90;99.30
674;DHT22;319;48.764;9.174;2023-11-25T10:13:30;7.10;99.30
674;DHT22;319;48.764;9.174;2023-11-25T10:15:58;7.30;99.30
674;DHT22;319;48.764;9.174;2023-11-25T10:18:25;7.30;98.80
674;DHT22;319;48.764;9.174;2023-11-25T10:20:52;7.50;98.60
674;DHT22;319;48.764;9.174;2023-11-25T10:23:25;7.70;98.50
674;DHT22;319;48.764;9.174;2023-11-25T10:25:52;7.70;97.80
674;DHT22;319;48.764;9.174;2023-11-25T10:28:20;7.80;97.80
674;DHT22;319;48.764;9.174;2023-11-25T10:30:56;7.90;97.50
674;DHT22;319;48.764;9.174;2023-11-25T10:33:23;7.90;97.20
674;DHT22;319;48.764;9.174;2023-11-25T10:35:50;7.70;97.10
674;DHT22;319;48.764;9.174;2023-11-25T10:38:18;7.80;97.30
674;DHT22;319;48.764;9.174;2023-11-25T10:40:48;7.70;97.10
674;DHT22;319;48.764;9.174;2023-11-25T10:43:16;7.70;97.40
674;DHT22;319;48.764;9.174;2023-11-25T10:45:43;7.60;97.30
674;DHT22;319;48.764;9.174;2023-11-25T10:48:12;7.70;97.30
674;DHT22;319;48.764;9.174;2023-11-25T10:50:40;7.50;97.00
674;DHT22;319;48.764;9.174;2023-11-25T10:53:12;7.60;97.40
674;DHT22;319;48.764;9.174;2023-11-25T10:55:38;7.50;97.40
674;DHT22;319;48.764;9.174;2023-11-25T10:58:09;7.60;97.30
674;DHT22;319;48.764;9.174;2023-11-25T11:00:37;7.70;97.20
674;DHT22;319;48.764;9.174;2023-11-25T11:03:08;7.80;97.00
674;DHT22;319;48.764;9.174;2023-11-25T11:05:41;8.00;96.90
674;DHT22;319;48.764;9.174;2023-11-25T11:08:15;8.20;96.30
674;DHT22;319;48.764;9.174;2023-11-25T11:10:49;8.20;96.10
674;DHT22;319;48.764;9.174;2023-11-25T11:13:22;8.30;95.70
674;DHT22;319;48.764;9.174;2023-11-25T11:15:53;8.30;95.20
674;DHT22;319;48.764;9.174;2023-11-25T11:18:24;8.30;95.00
674;DHT22;319;48.764;9.174;2023-11-25T11:20:55;8.10;94.80
674;DHT22;319;48.764;9.174;2023-11-25T11:23:22;8.00;95.40
674;DHT22;319;48.764;9.174;2023-11-25T11:25:59;7.80;95.80
674;DHT22;319;48.764;9.174;2023-11-25T11:28:38;7.70;96.10
674;DHT22;319;48.764;9.174;2023-11-25T11:34:09;7.70;96.20
674;DHT22;319;48.764;9.174;2023-11-25T11:36:36;7.90;96.50
674;DHT22;319;48.764;9.174;2023-11-25T11:39:03;7.80;96.00
674;DHT22;319;48.764;9.174;2023-11-25T11:41:30;7.80;96.30
674;DHT22;319;48.764;9.174;2023-11-25T11:44:04;7.90;96.30
674;DHT22;319;48.764;9.174;2023-11-25T11:46:32;7.90;96.10
674;DHT22;319;48.764;9.174;2023-11-25T11:49:05;7.80;96.20
674;DHT22;319;48.764;9.174;2023-11-25T11:51:33;7.40;96.30
674;DHT22;319;48.764;9.174;2023-11-25T11:54:23;7.00;97.30
674;DHT22;319;48.764;9.174;2023-11-25T11:56:59;6.90;98.60
674;DHT22;319;48.764;9.174;2023-11-25T11:59:57;6.90;99.90
674;DHT22;319;48.764;9.174;2023-11-25T12:02:27;6.90;99.90
674;DHT22;319;48.764;9.174;2023-11-25T12:04:55;6.80;99.90
674;DHT22;319;48.764;9.174;2023-11-25T12:07:22;6.70;99.90
674;DHT22;319;48.764;9.174;2023-11-25T12:09:49;6.80;99.90
674;DHT22;319;48.764;9.174;2023-11-25T12:12:15;6.80;99.90
674;DHT22;319;48.764;9.174;2023-11-25T12:14:42;6.70;99.90
674;DHT22;319;48.764;9.174;2023-11-25T12:17:12;6.60;99.90
674;DHT22;319;48.764;9.174;2023-11-25T12:19:42;6.60;99.90
674;DHT22;319;48.764;9.174;2023-11-25T12:22:09;6.60;99.90
674;DHT22;319;48.764;9.174;2023-11-25T12:24:37;6.60;99.90
674;DHT22;319;48.764;9.174;2023-11-25T12:27:05;6.70;99.90
674;DHT22;319;48.764;9.174;2023-11-25T12:29:33;6.70;99.90
674;DHT22;319;48.764;9.174;2023-11-25T12:32:00;6.70;99.90
674;DHT22;319;48.764;9.174;2023-11-25T12:34:29;6.70;99.90
674;DHT22;319;48.764;9.174;2023-11-25T12:36:56;6.60;99.90
674;DHT22;319;48.764;9.174;2023-11-25T12:39:23;6.50;99.90
674;DHT22;319;48.764;9.174;2023-11-25T12:41:50;6.50;99.90
674;DHT22;319;48.764;9.174;2023-11-25T12:44:17;6.40;99.90
674;DHT22;319;48.764;9.174;2023-11-25T12:46:59;6.40;99.90
674;DHT22;319;48.764;9.174;2023-11-25T12:49:25;6.40;99.90
674;DHT22;319;48.764;9.174;2023-11-25T12:51:53;6.50;99.90
674;DHT22;319;48.764;9.174;2023-11-25T12:54:20;6.50;99.90
674;DHT22;319;48.764;9.174;2023-11-25T12:56:48;6.60;99.90
674;DHT22;319;48.764;9.174;2023-11-25T12:59:20;6.60;99.90
674;DHT22;319;48.764;9.174;2023-11-25T13:01:46;6.60;99.90
674;DHT22;319;48.764;9.174;2023-11-25T13:04:13;6.60;99.90
674;DHT22;319;48.764;9.174;2023-11-25T13:06:47;6.70;99.90
674;DHT22;319;48.764;9.174;2023-11-25T13:09:15;6.80;99.90
674;DHT22;319;48.764;9.174;2023-11-25T13:11:46;6.90;99.90
674;DHT22;319;48.764;9.174;2023-11-25T13:14:12;6.80;99.90
674;DHT22;319;48.764;9.174;2023-11-25T13:16:39;6.70;99.90
674;DHT22;319;48.764;9.174;2023-11-25T13:19:06;6.70;99.90
674;DHT22;319;48.764;9.174;2023-11-25T13:21:34;6.60;99.90
674;DHT22;319;48.764;9.174;2023-11-25T13:24:01;6.50;99.90
674;DHT22;319;48.764;9.174;2023-11-25T13:26:30;6.50;99.90
674;DHT22;319;48.764;9.174;2023-11-25T13:28:58;6.40;99.90
674;DHT22;319;48.764;9.174;2023-11-25T13:31:25;6.40;99.90
674;DHT22;319;48.764;9.174;2023-11-25T13:33:51;6.40;99.90
674;DHT22;319;48.764;9.174;2023-11-25T13:36:20;6.40;99.90
674;DHT22;319;48.764;9.174;2023-11-25T13:38:47;6.40;99.90
674;DHT22;319;48.764;9.174;2023-11-25T13:41:14;6.40;99.90
674;DHT22;319;48.764;9.174;2023-11-25T13:43:42;6.40;99.90
674;DHT22;319;48.764;9.174;2023-11-25T13:46:10;6.40;99.90
674;DHT22;319;48.764;9.174;2023-11-25T13:48:37;6.40;99.90
674;DHT22;319;48.764;9.174;2023-11-25T13:51:04;6.40;99.90
674;DHT22;319;48.764;9.174;2023-11-25T13:53:34;6.30;99.90
674;DHT22;319;48.764;9.174;2023-11-25T13:56:01;6.30;99.90
674;DHT22;319;48.764;9.174;2023-11-25T13:58:28;6.30;99.90
674;DHT22;319;48.764;9.174;2023-11-25T14:00:57;6.30;99.90
674;DHT22;319;48.764;9.174;2023-11-25T14:03:24;6.20;99.90
674;DHT22;319;48.764;9.174;2023-11-25T14:05:53;6.20;99.90
674;DHT22;319;48.764;9.174;2023-11-25T14:08:22;6.20;99.90
674;DHT22;319;48.764;9.174;2023-11-25T14:10:53;6.30;99.90
674;DHT22;319;48.764;9.174;2023-11-25T14:13:21;6.30;99.90
674;DHT22;319;48.764;9.174;2023-11-25T14:15:48;6.30;99.90
674;DHT22;319;48.764;9.174;2023-11-25T14:18:16;6.20;99.90
674;DHT22;319;48.764;9.174;2023-11-25T14:20:43;6.30;99.90
674;DHT22;319;48.764;9.174;2023-11-25T14:23:10;6.40;99.90
674;DHT22;319;48.764;9.174;2023-11-25T14:25:36;6.40;99.90
674;DHT22;319;48.764;9.174;2023-11-25T14:28:06;6.50;99.90
674;DHT22;319;48.764;9.174;2023-11-25T14:30:33;6.60;99.90
674;DHT22;319;48.764;9.174;2023-11-25T14:33:00;6.60;99.90
674;DHT22;319;48.764;9.174;2023-11-25T14:35:30;6.60;99.90
674;DHT22;319;48.764;9.174;2023-11-25T14:37:56;6.60;99.90
674;DHT22;319;48.764;9.174;2023-11-25T14:40:26;6.60;99.90
674;DHT22;319;48.764;9.174;2023-11-25T14:42:54;6.60;99.90
674;DHT22;319;48.764;9.174;2023-11-25T14:45:21;6.50;99.90
674;DHT22;319;48.764;9.174;2023-11-25T14:47:48;6.50;99.90
674;DHT22;319;48.764;9.174;2023-11-25T14:50:15;6.50;99.90
674;DHT22;319;48.764;9.174;2023-11-25T14:52:43;6.60;99.90
674;DHT22;319;48.764;9.174;2023-11-25T14:55:10;6.70;99.90
674;DHT22;319;48.764;9.174;2023-11-25T14:57:37;6.60;99.90
674;DHT22;319;48.764;9.174;2023-11-25T15:00:08;6.70;99.90
674;DHT22;319;48.764;9.174;2023-11-25T15:02:39;6.70;99.90
674;DHT22;319;48.764;9.174;2023-11-25T15:05:06;6.70;99.90
674;DHT22;319;48.764;9.174;2023-11-25T15:07:35;6.70;99.90
674;DHT22;319;48.764;9.174;2023-11-25T15:10:04;6.70;99.90
674;DHT22;319;48.764;9.174;2023-11-25T15:12:30;6.60;99.90
674;DHT22;319;48.764;9.174;2023-11-25T15:14:57;6.70;99.90
674;DHT22;319;48.764;9.174;2023-11-25T15:17:24;6.60;99.90
674;DHT22;319;48.764;9.174;2023-11-25T15:19:51;6.60;99.90
674;DHT22;319;48.764;9.174;2023-11-25T15:22:18;6.60;99.90
674;DHT22;319;48.764;9.174;2023-11-25T15:24:45;6.60;99.90
674;DHT22;319;48.764;9.174;2023-11-25T15:27:13;6.70;99.90
674;DHT22;319;48.764;9.174;2023-11-25T15:29:42;6.70;99.90
674;DHT22;319;48.764;9.174;2023-11-25T15:32:22;6.60;99.90
674;DHT22;319;48.764;9.174;2023-11-25T15:34:49;6.60;99.90
674;DHT22;319;48.764;9.174;2023-11-25T15:37:16;6.60;99.90
674;DHT22;319;48.764;9.174;2023-11-25T15:39:43;6.60;99.90
674;DHT22;319;48.764;9.174;2023-11-25T15:42:10;6.60;99.90
674;DHT22;319;48.764;9.174;2023-11-25T15:44:38;6.60;99.90
674;DHT22;319;48.764;9.174;2023-11-25T15:47:08;6.50;99.90
674;DHT22;319;48.764;9.174;2023-11-25T15:49:36;6.50;99.90
674;DHT22;319;48.764;9.174;2023-11-25T15:52:03;6.50;99.90
674;DHT22;319;48.764;9.174;2023-11-25T15:54:30;6.60;99.90
674;DHT22;319;48.764;9.174;2023-11-25T15:56:57;6.60;99.90
674;DHT22;319;48.764;9.174;2023-11-25T15:59:24;6.60;99.90
674;DHT22;319;48.764;9.174;2023-11-25T16:01:56;6.60;99.90
674;DHT22;319;48.764;9.174;2023-11-25T16:04:23;6.60;99.90
674;DHT22;319;48.764;9.174;2023-11-25T16:06:50;6.60;99.90
674;DHT22;319;48.764;9.174;2023-11-25T16:09:17;6.50;99.90
674;DHT22;319;48.764;9.174;2023-11-25T16:11:44;6.60;99.90
674;DHT22;319;48.764;9.174;2023-11-25T16:14:11;6.60;99.90
674;DHT22;319;48.764;9.174;2023-11-25T16:16:38;6.50;99.90
674;DHT22;319;48.764;9.174;2023-11-25T16:19:06;6.60;99.90
674;DHT22;319;48.764;9.174;2023-11-25T16:21:35;6.50;99.90
674;DHT22;319;48.764;9.174;2023-11-25T16:24:04;6.60;99.90
674;DHT22;319;48.764;9.174;2023-11-25T16:26:31;6.60;99.90
674;DHT22;319;48.764;9.174;2023-11-25T16:28:58;6.50;99.90
674;DHT22;319;48.764;9.174;2023-11-25T16:31:26;6.50;99.90
674;DHT22;319;48.764;9.174;2023-11-25T16:33:54;6.50;99.90
674;DHT22;319;48.764;9.174;2023-11-25T16:36:23;6.50;99.90
674;DHT22;319;48.764;9.174;2023-11-25T16:38:52;6.50;99.90
674;DHT22;319;48.764;9.174;2023-11-25T16:41:21;6.40;99.90
674;DHT22;319;48.764;9.174;2023-11-25T16:43:48;6.40;99.90
674;DHT22;319;48.764;9.174;2023-11-25T16:46:16;6.50;99.90
674;DHT22;319;48.764;9.174;2023-11-25T16:48:43;6.50;99.90
674;DHT22;319;48.764;9.174;2023-11-25T16:51:10;6.40;99.90
674;DHT22;319;48.764;9.174;2023-11-25T16:53:38;6.50;99.90
674;DHT22;319;48.764;9.174;2023-11-25T16:56:06;6.40;99.90
674;DHT22;319;48.764;9.174;2023-11-25T16:58:34;6.40;99.90